Terminal Aerodrome Forecast
Issued by NWS

Home | Current Version | Previous Version | Text Only | Print | Product List | Glossary On
Versions: 1 2 3 4 5 6 7 8 9 10 11 12 13 14 15 16
138
FTUS43 KEAX 201723
TAFSTJ
TAF
KSTJ 201723Z 2018/2118 19010KT P6SM BKN020 OVC100
     FM202000 20009KT P6SM BKN060
     FM210500 32006KT P6SM FEW200=

USA.gov is the U.S. government's official web portal to all federal, state and local government web resources and services.